Time;durP1;ratioP1;P1;durP2;ratioP2;P2;SDS_P1;SDS_P2;PMS_P1;PMS_P2;Temp;Humidity;BMP_temperature;BMP_pressure;BME280_temperature;BME280_humidity;BME280_pressure;Samples;Min_cycle;Max_cycle;Signal;HPM_P1;HPM_P2
2023/12/27 00:01:54;;;;;;;7.47;1.80;;;;;;;;;;4951004;28;20778;-72
2023/12/27 00:04:20;;;;;;;7.55;2.38;;;;;;;;;;4940535;29;20082;-72
2023/12/27 00:06:46;;;;;;;8.48;3.20;;;;;;;;;;4917096;29;20051;-72
2023/12/27 00:09:12;;;;;;;11.52;2.55;;;;;;;;;;4947872;29;20058;-72
2023/12/27 00:11:38;;;;;;;7.00;3.40;;;;;;;;;;4931087;29;20132;-72
2023/12/27 00:14:04;;;;;;;8.07;2.97;;;;;;;;;;4946667;29;20043;-72
2023/12/27 00:16:30;;;;;;;6.43;2.40;;;;;;;;;;4944892;29;20040;-71
2023/12/27 00:18:56;;;;;;;4.68;2.28;;;;;;;;;;4946303;29;20039;-72
2023/12/27 00:21:22;;;;;;;4.28;2.05;;;;;;;;;;4934604;29;20153;-72
2023/12/27 00:23:48;;;;;;;6.70;2.33;;;;;;;;;;4947834;29;20051;-71
2023/12/27 00:26:15;;;;;;;8.02;2.30;;;;;;;;;;4948864;28;20051;-72
2023/12/27 00:28:41;;;;;;;5.88;2.17;;;;;;;;;;4945767;28;20062;-72
2023/12/27 00:31:07;;;;;;;7.55;2.08;;;;;;;;;;4946843;29;20188;-71
2023/12/27 00:33:33;;;;;;;4.05;1.98;;;;;;;;;;4935674;29;20107;-72
2023/12/27 00:35:59;;;;;;;7.97;2.28;;;;;;;;;;4946581;29;20843;-72
2023/12/27 00:38:25;;;;;;;6.15;1.85;;;;;;;;;;4945184;29;20052;-72
2023/12/27 00:40:51;;;;;;;6.38;2.20;;;;;;;;;;4927107;29;20043;-72
2023/12/27 00:43:17;;;;;;;7.15;2.10;;;;;;;;;;4940568;29;20047;-71
2023/12/27 00:45:43;;;;;;;7.05;3.00;;;;;;;;;;4930747;29;20047;-72
2023/12/27 00:48:09;;;;;;;9.13;2.70;;;;;;;;;;4942325;29;20066;-72
2023/12/27 00:50:35;;;;;;;10.35;3.00;;;;;;;;;;4928742;29;20224;-72
2023/12/27 00:53:01;;;;;;;4.75;2.50;;;;;;;;;;4947611;29;20130;-72
2023/12/27 00:55:27;;;;;;;7.18;2.55;;;;;;;;;;4946696;29;20047;-72
2023/12/27 00:57:53;;;;;;;6.45;2.25;;;;;;;;;;4946108;29;20054;-72
2023/12/27 01:00:19;;;;;;;4.70;2.22;;;;;;;;;;4935802;29;20048;-72
2023/12/27 01:02:45;;;;;;;9.43;2.88;;;;;;;;;;4947565;28;20151;-72
2023/12/27 01:05:11;;;;;;;8.35;4.03;;;;;;;;;;4944594;29;20047;-72
2023/12/27 01:07:37;;;;;;;12.48;3.33;;;;;;;;;;4942871;29;20043;-72
2023/12/27 01:10:05;;;;;;;7.75;3.15;;;;;;;;;;4927982;29;20138;-71
2023/12/27 01:12:31;;;;;;;6.03;2.42;;;;;;;;;;4939887;29;20051;-72
2023/12/27 01:14:57;;;;;;;11.80;2.85;;;;;;;;;;4945027;29;20407;-72
2023/12/27 01:17:23;;;;;;;7.38;3.45;;;;;;;;;;4931824;29;20051;-71
2023/12/27 01:19:49;;;;;;;11.43;2.85;;;;;;;;;;4917263;29;20117;-71
2023/12/27 01:22:15;;;;;;;14.55;4.07;;;;;;;;;;4938127;29;20047;-72
2023/12/27 01:24:41;;;;;;;9.32;2.60;;;;;;;;;;4920585;29;20917;-72
2023/12/27 01:27:07;;;;;;;8.60;2.50;;;;;;;;;;4923191;29;20385;-72
2023/12/27 01:29:33;;;;;;;6.25;2.95;;;;;;;;;;4932437;29;20136;-72
2023/12/27 01:31:59;;;;;;;7.35;2.60;;;;;;;;;;4924382;29;20817;-72
2023/12/27 01:34:25;;;;;;;9.38;2.60;;;;;;;;;;4911563;29;20043;-72
2023/12/27 01:36:51;;;;;;;8.05;2.97;;;;;;;;;;4916578;29;20084;-72
2023/12/27 01:39:17;;;;;;;9.35;3.30;;;;;;;;;;4929977;29;20616;-72
2023/12/27 01:41:43;;;;;;;10.85;3.60;;;;;;;;;;4939005;29;20051;-72
2023/12/27 01:44:09;;;;;;;8.00;2.92;;;;;;;;;;4918963;29;20483;-72
2023/12/27 01:46:35;;;;;;;8.32;2.85;;;;;;;;;;4924993;29;20043;-72
2023/12/27 01:49:01;;;;;;;9.05;2.58;;;;;;;;;;4928447;29;20047;-72
2023/12/27 01:51:27;;;;;;;12.30;3.03;;;;;;;;;;4925136;29;20415;-71
2023/12/27 01:53:54;;;;;;;9.32;3.15;;;;;;;;;;4931593;29;20054;-72
2023/12/27 01:56:20;;;;;;;8.82;3.38;;;;;;;;;;4915606;29;20055;-72
2023/12/27 01:58:46;;;;;;;11.13;4.22;;;;;;;;;;4913343;29;20043;-71
2023/12/27 02:01:12;;;;;;;6.90;2.70;;;;;;;;;;4939070;29;20146;-72
2023/12/27 02:03:38;;;;;;;6.28;2.40;;;;;;;;;;4931075;29;20130;-72
2023/12/27 02:06:04;;;;;;;9.68;3.00;;;;;;;;;;4929081;29;20503;-72
2023/12/27 02:08:30;;;;;;;9.88;2.85;;;;;;;;;;4929193;29;20797;-72
2023/12/27 02:10:56;;;;;;;6.68;3.40;;;;;;;;;;4932338;29;20830;-72
2023/12/27 02:13:23;;;;;;;8.45;2.88;;;;;;;;;;4927345;29;20050;-72
2023/12/27 02:15:51;;;;;;;8.23;3.03;;;;;;;;;;4924141;29;20110;-72
2023/12/27 02:18:17;;;;;;;8.23;2.80;;;;;;;;;;4919593;29;20071;-72
2023/12/27 02:20:44;;;;;;;12.52;3.40;;;;;;;;;;4925007;29;20074;-72
2023/12/27 02:23:12;;;;;;;12.38;3.78;;;;;;;;;;4917608;29;20134;-72
2023/12/27 02:25:38;;;;;;;12.23;4.68;;;;;;;;;;4932389;29;20051;-72
2023/12/27 02:28:04;;;;;;;10.30;3.25;;;;;;;;;;4928667;29;20083;-72
2023/12/27 02:30:33;;;;;;;8.18;2.83;;;;;;;;;;4930898;29;20067;-72
2023/12/27 02:32:59;;;;;;;11.55;3.30;;;;;;;;;;4913275;29;20107;-72
2023/12/27 02:35:25;;;;;;;5.75;3.17;;;;;;;;;;4907922;29;20054;-72
2023/12/27 02:37:51;;;;;;;7.70;3.85;;;;;;;;;;4904349;29;20144;-72
2023/12/27 02:40:17;;;;;;;8.10;3.22;;;;;;;;;;4913076;29;20047;-72
2023/12/27 02:42:43;;;;;;;9.77;3.80;;;;;;;;;;4899638;29;20056;-72
2023/12/27 02:45:09;;;;;;;12.38;3.65;;;;;;;;;;4911602;29;20054;-72
2023/12/27 02:47:35;;;;;;;6.57;3.20;;;;;;;;;;4911159;29;20043;-71
2023/12/27 02:50:02;;;;;;;8.23;3.53;;;;;;;;;;4912611;29;20077;-72
2023/12/27 02:52:29;;;;;;;11.05;3.58;;;;;;;;;;4914487;29;20044;-72
2023/12/27 02:54:55;;;;;;;14.40;4.40;;;;;;;;;;4917203;29;20568;-72
2023/12/27 02:57:21;;;;;;;9.20;3.38;;;;;;;;;;4911867;29;20490;-71
2023/12/27 02:59:47;;;;;;;8.85;3.88;;;;;;;;;;4910791;29;20055;-71
2023/12/27 03:02:13;;;;;;;8.13;3.17;;;;;;;;;;4914519;29;20530;-71
2023/12/27 03:04:39;;;;;;;12.85;3.60;;;;;;;;;;4907259;29;20044;-72
2023/12/27 03:07:07;;;;;;;11.70;4.57;;;;;;;;;;4914047;29;20054;-72
2023/12/27 03:09:33;;;;;;;11.00;4.15;;;;;;;;;;4919775;29;20126;-72
2023/12/27 03:11:59;;;;;;;10.55;4.22;;;;;;;;;;4913832;29;20044;-72
2023/12/27 03:14:26;;;;;;;13.77;4.53;;;;;;;;;;4915668;29;20764;-72
2023/12/27 03:16:52;;;;;;;11.80;4.63;;;;;;;;;;4915617;29;20146;-72
2023/12/27 03:19:18;;;;;;;13.10;4.20;;;;;;;;;;4915164;29;20138;-72
2023/12/27 03:21:44;;;;;;;14.10;5.32;;;;;;;;;;4930975;29;20043;-72
2023/12/27 03:24:12;;;;;;;12.88;4.93;;;;;;;;;;4918168;29;20083;-72
2023/12/27 03:26:38;;;;;;;14.65;4.85;;;;;;;;;;4901623;29;20048;-72
2023/12/27 03:29:04;;;;;;;15.50;5.32;;;;;;;;;;4911570;29;20511;-72
2023/12/27 03:31:30;;;;;;;10.27;4.85;;;;;;;;;;4942439;29;20054;-72
2023/12/27 03:33:56;;;;;;;14.30;5.95;;;;;;;;;;4946714;28;20161;-71
2023/12/27 03:36:22;;;;;;;10.50;5.68;;;;;;;;;;4918666;29;20051;-71
2023/12/27 03:38:48;;;;;;;15.32;5.60;;;;;;;;;;4931420;29;20053;-72
2023/12/27 03:41:14;;;;;;;14.32;5.75;;;;;;;;;;4950710;29;20502;-72
2023/12/27 03:43:41;;;;;;;9.70;5.10;;;;;;;;;;4933821;29;20039;-71
2023/12/27 03:46:07;;;;;;;12.73;6.07;;;;;;;;;;4910271;29;20047;-72
2023/12/27 03:48:33;;;;;;;12.48;5.65;;;;;;;;;;4925699;29;20046;-72
2023/12/27 03:50:59;;;;;;;15.73;6.40;;;;;;;;;;4934486;29;20137;-72
2023/12/27 03:53:25;;;;;;;13.82;5.80;;;;;;;;;;4945763;29;20044;-72
2023/12/27 03:55:52;;;;;;;10.68;5.60;;;;;;;;;;4925459;29;20035;-72
2023/12/27 03:58:18;;;;;;;12.35;5.97;;;;;;;;;;4918664;29;20071;-72
2023/12/27 04:00:44;;;;;;;11.13;5.30;;;;;;;;;;4913688;29;20040;-71
2023/12/27 04:03:10;;;;;;;15.48;5.47;;;;;;;;;;4927297;28;20106;-71
2023/12/27 04:05:36;;;;;;;13.45;5.45;;;;;;;;;;4918145;29;20039;-72
2023/12/27 04:08:02;;;;;;;12.65;6.03;;;;;;;;;;4932423;29;20054;-72
2023/12/27 04:10:31;;;;;;;15.77;5.47;;;;;;;;;;4918950;29;20049;-72
2023/12/27 04:12:58;;;;;;;13.48;6.07;;;;;;;;;;4933345;29;20090;-72
2023/12/27 04:15:24;;;;;;;12.45;5.60;;;;;;;;;;4923435;29;20600;-72
2023/12/27 04:17:50;;;;;;;14.13;6.47;;;;;;;;;;4922650;29;20066;-72
2023/12/27 04:20:16;;;;;;;14.48;5.63;;;;;;;;;;4921502;29;20063;-72
2023/12/27 04:22:42;;;;;;;15.77;5.70;;;;;;;;;;4917165;29;20087;-72
2023/12/27 04:25:08;;;;;;;13.63;5.65;;;;;;;;;;4943006;29;20081;-72
2023/12/27 04:27:34;;;;;;;16.30;5.50;;;;;;;;;;4932936;29;20047;-72
2023/12/27 04:30:00;;;;;;;14.43;6.03;;;;;;;;;;4944344;29;20051;-71
2023/12/27 04:32:26;;;;;;;15.77;5.13;;;;;;;;;;4949731;29;20070;-72
2023/12/27 04:34:52;;;;;;;15.70;5.50;;;;;;;;;;4944515;29;20065;-72
2023/12/27 04:37:18;;;;;;;13.80;5.38;;;;;;;;;;4930722;29;20038;-72
2023/12/27 04:39:44;;;;;;;14.15;5.30;;;;;;;;;;4925985;29;20062;-71
2023/12/27 04:42:10;;;;;;;17.95;6.30;;;;;;;;;;4916489;29;20043;-71
2023/12/27 04:44:36;;;;;;;19.38;6.55;;;;;;;;;;4925548;29;20050;-72
2023/12/27 04:47:02;;;;;;;17.08;5.43;;;;;;;;;;4917634;29;20039;-71
2023/12/27 04:49:28;;;;;;;15.32;6.00;;;;;;;;;;4941373;29;20057;-72
2023/12/27 04:51:54;;;;;;;9.10;4.65;;;;;;;;;;4926267;29;20139;-71
2023/12/27 04:54:20;;;;;;;12.10;4.35;;;;;;;;;;4922414;29;20130;-72
2023/12/27 04:56:46;;;;;;;10.45;4.93;;;;;;;;;;4932346;29;20662;-72
2023/12/27 04:59:12;;;;;;;13.90;5.32;;;;;;;;;;4931984;29;20063;-72
2023/12/27 05:01:38;;;;;;;11.73;4.90;;;;;;;;;;4908759;29;20044;-71
2023/12/27 05:04:04;;;;;;;16.75;4.72;;;;;;;;;;4927759;29;20098;-71
2023/12/27 05:06:30;;;;;;;20.30;6.07;;;;;;;;;;4948089;29;20051;-72
2023/12/27 05:08:59;;;;;;;14.05;5.13;;;;;;;;;;4930982;29;20039;-72
2023/12/27 05:11:25;;;;;;;10.30;4.90;;;;;;;;;;4927112;29;20091;-72
2023/12/27 05:13:51;;;;;;;10.57;4.57;;;;;;;;;;4941813;29;20042;-72
2023/12/27 05:16:18;;;;;;;10.65;5.40;;;;;;;;;;4934142;29;20134;-72
2023/12/27 05:18:44;;;;;;;10.63;4.57;;;;;;;;;;4931676;29;20157;-72
2023/12/27 05:21:11;;;;;;;10.20;4.40;;;;;;;;;;4929401;29;20139;-72
2023/12/27 05:23:37;;;;;;;9.50;4.43;;;;;;;;;;4930543;29;20070;-72
2023/12/27 05:26:04;;;;;;;9.75;4.22;;;;;;;;;;4937754;29;20051;-72
2023/12/27 05:28:30;;;;;;;8.90;4.25;;;;;;;;;;4933739;28;20059;-72
2023/12/27 05:30:56;;;;;;;14.57;4.57;;;;;;;;;;4943145;28;20076;-72
2023/12/27 05:33:24;;;;;;;14.15;4.40;;;;;;;;;;4936043;29;20137;-72
2023/12/27 05:35:50;;;;;;;11.07;4.32;;;;;;;;;;4942775;28;20082;-72
2023/12/27 05:38:16;;;;;;;9.98;4.95;;;;;;;;;;4932884;29;20047;-72
2023/12/27 05:40:42;;;;;;;14.65;4.68;;;;;;;;;;4931095;29;20054;-72
2023/12/27 05:43:08;;;;;;;11.52;4.20;;;;;;;;;;4949041;29;20662;-72
2023/12/27 05:45:34;;;;;;;16.92;5.80;;;;;;;;;;4950613;28;20047;-72
2023/12/27 05:48:00;;;;;;;16.50;5.85;;;;;;;;;;4937964;28;20074;-72
2023/12/27 05:50:26;;;;;;;10.60;5.03;;;;;;;;;;4933482;28;20085;-72
2023/12/27 05:52:54;;;;;;;10.07;5.07;;;;;;;;;;4940362;29;20079;-72
2023/12/27 05:55:20;;;;;;;15.45;5.93;;;;;;;;;;4936039;29;20057;-72
2023/12/27 05:57:46;;;;;;;17.48;5.43;;;;;;;;;;4935605;29;20058;-72
2023/12/27 06:00:15;;;;;;;15.93;5.18;;;;;;;;;;4935727;29;20048;-72
2023/12/27 06:02:42;;;;;;;18.45;6.78;;;;;;;;;;4933572;28;20058;-72
2023/12/27 06:05:09;;;;;;;14.95;5.18;;;;;;;;;;4936005;28;20150;-72
2023/12/27 06:07:36;;;;;;;12.00;4.93;;;;;;;;;;4912052;29;20039;-72
2023/12/27 06:10:02;;;;;;;14.70;5.35;;;;;;;;;;4925650;29;20851;-72
2023/12/27 06:12:28;;;;;;;12.45;5.15;;;;;;;;;;4944553;29;20131;-72
2023/12/27 06:14:54;;;;;;;15.20;5.25;;;;;;;;;;4928270;29;20046;-72
2023/12/27 06:17:20;;;;;;;15.05;5.43;;;;;;;;;;4927886;29;20058;-72
2023/12/27 06:19:46;;;;;;;14.57;5.10;;;;;;;;;;4925333;29;20047;-72
2023/12/27 06:22:12;;;;;;;14.50;4.93;;;;;;;;;;4926959;29;20139;-72
2023/12/27 06:24:38;;;;;;;17.08;4.82;;;;;;;;;;4926462;29;20051;-72
2023/12/27 06:27:06;;;;;;;13.43;5.20;;;;;;;;;;4928123;29;20079;-72
2023/12/27 06:29:33;;;;;;;13.70;4.88;;;;;;;;;;4929845;29;20129;-72
2023/12/27 06:31:59;;;;;;;12.07;5.00;;;;;;;;;;4931372;29;20843;-72
2023/12/27 06:34:25;;;;;;;17.33;7.07;;;;;;;;;;4941420;29;20864;-72
2023/12/27 06:36:51;;;;;;;14.38;4.90;;;;;;;;;;4930992;29;20134;-72
2023/12/27 06:39:17;;;;;;;12.95;5.00;;;;;;;;;;4928911;29;20047;-72
2023/12/27 06:41:44;;;;;;;15.85;5.25;;;;;;;;;;4930308;29;20062;-72
2023/12/27 06:44:10;;;;;;;14.35;5.47;;;;;;;;;;4930038;29;20153;-72
2023/12/27 06:46:36;;;;;;;11.27;5.35;;;;;;;;;;4915330;29;20051;-72
2023/12/27 06:49:02;;;;;;;17.60;5.63;;;;;;;;;;4931086;29;20478;-73
2023/12/27 06:51:28;;;;;;;12.82;5.15;;;;;;;;;;4925084;29;20039;-72
2023/12/27 06:53:54;;;;;;;19.60;5.55;;;;;;;;;;4946445;29;20047;-73
2023/12/27 06:56:20;;;;;;;12.25;5.30;;;;;;;;;;4929049;29;20110;-72
2023/12/27 06:58:46;;;;;;;12.88;5.25;;;;;;;;;;4925604;29;20167;-73
2023/12/27 07:01:12;;;;;;;14.23;5.80;;;;;;;;;;4947379;29;20106;-72
2023/12/27 07:03:38;;;;;;;15.38;6.53;;;;;;;;;;4930394;29;20069;-72
2023/12/27 07:06:04;;;;;;;13.95;6.45;;;;;;;;;;4948445;28;20066;-73
2023/12/27 07:08:33;;;;;;;16.48;5.82;;;;;;;;;;4933056;28;20065;-73
2023/12/27 07:11:00;;;;;;;8.75;5.15;;;;;;;;;;4924438;29;20054;-72
2023/12/27 07:13:26;;;;;;;20.63;6.32;;;;;;;;;;4907128;29;20067;-73
2023/12/27 07:15:54;;;;;;;11.77;4.57;;;;;;;;;;4906969;28;20117;-72
2023/12/27 07:18:20;;;;;;;10.85;5.50;;;;;;;;;;4942384;29;20045;-73
2023/12/27 07:20:47;;;;;;;14.43;5.55;;;;;;;;;;4909976;29;20067;-73
2023/12/27 07:23:13;;;;;;;11.88;4.93;;;;;;;;;;4924932;29;20067;-73
2023/12/27 07:25:40;;;;;;;14.13;5.38;;;;;;;;;;4906497;29;20050;-74
2023/12/27 07:28:06;;;;;;;12.77;5.78;;;;;;;;;;4910869;29;20050;-73
2023/12/27 07:30:32;;;;;;;16.15;6.43;;;;;;;;;;4925004;29;20423;-73
2023/12/27 07:32:58;;;;;;;14.77;5.57;;;;;;;;;;4920427;29;20094;-73
2023/12/27 07:35:25;;;;;;;16.35;5.93;;;;;;;;;;4932168;29;20125;-72
2023/12/27 07:37:52;;;;;;;24.95;7.20;;;;;;;;;;4946216;28;20050;-72
2023/12/27 07:40:18;;;;;;;22.60;6.55;;;;;;;;;;4928202;29;20051;-71
2023/12/27 07:42:44;;;;;;;15.43;5.32;;;;;;;;;;4943861;29;20051;-72
2023/12/27 07:45:10;;;;;;;11.25;5.50;;;;;;;;;;4924817;29;20035;-72
2023/12/27 07:47:37;;;;;;;12.82;5.70;;;;;;;;;;4913702;29;20047;-74
2023/12/27 07:50:06;;;;;;;11.27;5.85;;;;;;;;;;4919977;28;20121;-72
2023/12/27 07:52:33;;;;;;;13.82;5.88;;;;;;;;;;4910099;28;20043;-72
2023/12/27 07:55:00;;;;;;;17.15;6.43;;;;;;;;;;4921576;29;20055;-71
2023/12/27 07:57:26;;;;;;;13.93;5.88;;;;;;;;;;4940298;28;20128;-70
2023/12/27 07:59:55;;;;;;;13.68;5.53;;;;;;;;;;4922993;29;20070;-72
2023/12/27 08:02:21;;;;;;;14.43;5.55;;;;;;;;;;4909125;29;20150;-72
2023/12/27 08:04:47;;;;;;;19.42;6.57;;;;;;;;;;4919983;29;20059;-74
2023/12/27 08:07:13;;;;;;;14.50;5.80;;;;;;;;;;4923747;29;20062;-72
2023/12/27 08:09:39;;;;;;;13.98;5.53;;;;;;;;;;4916771;29;20039;-73
2023/12/27 08:12:06;;;;;;;16.00;6.30;;;;;;;;;;4900402;29;20067;-73
2023/12/27 08:14:32;;;;;;;11.65;5.20;;;;;;;;;;4919993;29;20094;-73
2023/12/27 08:16:58;;;;;;;14.57;5.78;;;;;;;;;;4918953;29;20052;-72
2023/12/27 08:19:24;;;;;;;16.85;6.88;;;;;;;;;;4923585;29;20561;-72
2023/12/27 08:21:50;;;;;;;12.95;5.10;;;;;;;;;;4918302;29;20050;-71
2023/12/27 08:24:16;;;;;;;9.25;4.45;;;;;;;;;;4907222;29;20038;-70
2023/12/27 08:26:42;;;;;;;9.68;5.57;;;;;;;;;;4925060;29;20518;-73
2023/12/27 08:29:08;;;;;;;19.35;6.43;;;;;;;;;;4921417;29;20051;-72
2023/12/27 08:31:35;;;;;;;12.90;5.50;;;;;;;;;;4925231;28;20043;-73
2023/12/27 08:34:19;;;;;;;14.60;5.32;;;;;;;;;;4925176;29;20529;-73
2023/12/27 08:36:47;;;;;;;14.15;5.03;;;;;;;;;;4906038;29;20410;-74
2023/12/27 08:39:13;;;;;;;12.48;5.45;;;;;;;;;;4923618;29;20055;-72
2023/12/27 08:41:39;;;;;;;15.00;5.00;;;;;;;;;;4922004;29;20797;-71
2023/12/27 08:44:06;;;;;;;13.70;6.00;;;;;;;;;;4922631;29;20043;-72
2023/12/27 08:46:32;;;;;;;10.63;3.78;;;;;;;;;;4922961;29;20035;-72
2023/12/27 08:49:08;;;;;;;15.38;6.30;;;;;;;;;;4929959;29;20472;-73
2023/12/27 08:51:37;;;;;;;17.52;6.00;;;;;;;;;;4909257;29;20390;-70
2023/12/27 08:54:04;;;;;;;11.80;6.22;;;;;;;;;;4925237;29;20051;-71
2023/12/27 08:57:09;;;;;;;19.05;6.40;;;;;;;;;;4925860;29;20074;-71
2023/12/27 08:59:36;;;;;;;20.75;6.90;;;;;;;;;;4907416;29;20039;-72
2023/12/27 09:02:03;;;;;;;13.18;5.75;;;;;;;;;;4921885;29;20059;-71
2023/12/27 09:04:31;;;;;;;16.15;6.07;;;;;;;;;;4923292;29;20110;-71
2023/12/27 09:07:11;;;;;;;11.60;5.65;;;;;;;;;;4928426;29;20125;-72
2023/12/27 09:10:18;;;;;;;11.90;5.28;;;;;;;;;;4904991;29;20039;-74
2023/12/27 09:12:52;;;;;;;14.57;6.20;;;;;;;;;;4901111;29;20035;-73
2023/12/27 09:15:33;;;;;;;17.05;6.35;;;;;;;;;;4939350;29;20040;-71
2023/12/27 09:18:26;;;;;;;19.70;6.55;;;;;;;;;;4917145;29;20035;-71
2023/12/27 09:21:33;;;;;;;14.00;7.05;;;;;;;;;;4935954;28;20054;-71
2023/12/27 09:34:42;;;;;;;15.02;6.28;;;;;;;;;;4889176;29;20177;-71
2023/12/27 09:37:17;;;;;;;17.88;7.53;;;;;;;;;;4871852;29;20762;-71
2023/12/27 09:40:20;;;;;;;20.20;7.97;;;;;;;;;;4859068;29;20048;-71
2023/12/27 09:42:55;;;;;;;16.30;7.78;;;;;;;;;;4878010;29;20059;-71
2023/12/27 09:45:41;;;;;;;16.73;7.15;;;;;;;;;;4935212;28;20090;-71
2023/12/27 09:48:13;;;;;;;20.65;7.80;;;;;;;;;;4909636;29;20055;-70
2023/12/27 09:51:00;;;;;;;16.98;7.32;;;;;;;;;;4936072;29;20153;-70
2023/12/27 09:53:26;;;;;;;19.80;8.00;;;;;;;;;;4935180;28;20051;-70
2023/12/27 09:55:55;;;;;;;20.08;8.43;;;;;;;;;;4920912;29;20050;-72
2023/12/27 09:58:45;;;;;;;20.95;7.45;;;;;;;;;;4917252;29;20086;-70
2023/12/27 10:05:08;;;;;;;17.10;7.53;;;;;;;;;;4920042;29;20067;-71
2023/12/27 10:08:32;;;;;;;15.98;6.65;;;;;;;;;;4917297;29;20167;-70
2023/12/27 10:11:02;;;;;;;18.30;8.00;;;;;;;;;;4899624;29;20075;-70
2023/12/27 10:14:13;;;;;;;15.30;8.13;;;;;;;;;;4891731;29;20052;-71
2023/12/27 10:17:04;;;;;;;19.35;6.85;;;;;;;;;;4879168;29;20138;-69
2023/12/27 10:19:42;;;;;;;22.95;9.60;;;;;;;;;;4887508;29;20058;-70
2023/12/27 10:22:29;;;;;;;22.20;8.63;;;;;;;;;;4903799;29;20056;-70
2023/12/27 10:25:12;;;;;;;16.98;8.55;;;;;;;;;;4925104;29;20411;-70
2023/12/27 10:28:00;;;;;;;22.85;9.52;;;;;;;;;;4917325;29;20043;-70
2023/12/27 10:31:44;;;;;;;16.95;8.98;;;;;;;;;;4898109;29;20063;-71
2023/12/27 10:35:13;;;;;;;16.23;8.18;;;;;;;;;;4907322;29;20126;-73
2023/12/27 10:38:01;;;;;;;25.50;9.27;;;;;;;;;;4925877;29;20047;-70
2023/12/27 10:40:29;;;;;;;19.83;9.15;;;;;;;;;;4922239;29;20114;-71
2023/12/27 10:42:55;;;;;;;17.63;10.05;;;;;;;;;;4907260;29;20056;-71
2023/12/27 10:45:21;;;;;;;19.30;10.75;;;;;;;;;;4907423;29;20067;-71
2023/12/27 10:48:20;;;;;;;21.38;9.13;;;;;;;;;;4910904;29;20519;-72
2023/12/27 10:50:54;;;;;;;25.92;11.15;;;;;;;;;;4891667;29;20906;-72
2023/12/27 10:53:35;;;;;;;17.73;8.18;;;;;;;;;;4907837;29;20579;-70
2023/12/27 10:56:05;;;;;;;19.27;9.63;;;;;;;;;;4922805;29;20052;-71
2023/12/27 10:58:31;;;;;;;26.30;9.20;;;;;;;;;;4925371;29;20043;-71
2023/12/27 11:00:59;;;;;;;16.45;8.98;;;;;;;;;;4900022;29;20058;-69
2023/12/27 11:03:25;;;;;;;22.08;12.45;;;;;;;;;;4906267;29;20419;-71
2023/12/27 11:05:52;;;;;;;25.80;10.95;;;;;;;;;;4907312;29;20130;-71
2023/12/27 11:08:20;;;;;;;21.85;11.20;;;;;;;;;;4919621;29;20048;-71
2023/12/27 11:10:46;;;;;;;22.23;10.93;;;;;;;;;;4889760;29;20044;-71
2023/12/27 11:13:12;;;;;;;27.00;12.18;;;;;;;;;;4905505;29;20043;-72
2023/12/27 11:15:44;;;;;;;21.33;10.85;;;;;;;;;;4908359;29;20058;-72
2023/12/27 11:18:13;;;;;;;23.00;11.65;;;;;;;;;;4909455;29;20051;-73
2023/12/27 11:20:42;;;;;;;19.52;11.25;;;;;;;;;;4887283;29;20043;-74
2023/12/27 11:23:15;;;;;;;24.95;11.77;;;;;;;;;;4924604;29;20051;-71
2023/12/27 11:25:41;;;;;;;25.02;13.63;;;;;;;;;;4900593;29;20059;-71
2023/12/27 11:28:08;;;;;;;20.88;12.15;;;;;;;;;;4922103;29;20405;-71
2023/12/27 11:30:34;;;;;;;21.30;10.90;;;;;;;;;;4916954;29;20192;-72
2023/12/27 11:33:01;;;;;;;19.58;12.05;;;;;;;;;;4907972;29;20102;-70
2023/12/27 11:35:47;;;;;;;21.30;11.60;;;;;;;;;;4911081;29;20146;-73
2023/12/27 11:38:19;;;;;;;19.13;11.23;;;;;;;;;;4908804;29;20737;-74
2023/12/27 11:40:45;;;;;;;18.98;11.90;;;;;;;;;;4925633;29;20783;-72
2023/12/27 11:50:22;;;;;;;18.23;10.50;;;;;;;;;;4929001;29;20038;-71
2023/12/27 11:53:34;;;;;;;17.10;9.15;;;;;;;;;;4926794;29;20117;-72
2023/12/27 11:56:02;;;;;;;17.13;10.68;;;;;;;;;;4909384;29;20051;-73
2023/12/27 11:58:31;;;;;;;21.88;11.15;;;;;;;;;;4930265;29;20047;-72
2023/12/27 12:01:17;;;;;;;20.58;10.60;;;;;;;;;;4913692;29;20111;-72
2023/12/27 12:03:45;;;;;;;17.30;10.77;;;;;;;;;;4906915;29;20049;-73
2023/12/27 12:06:27;;;;;;;14.93;9.77;;;;;;;;;;4921806;29;20060;-72
2023/12/27 12:08:53;;;;;;;19.35;11.68;;;;;;;;;;4924497;29;20095;-70
2023/12/27 12:11:24;;;;;;;21.75;12.25;;;;;;;;;;4920738;29;20830;-72
2023/12/27 12:13:51;;;;;;;20.80;12.48;;;;;;;;;;4909608;29;20043;-71
2023/12/27 12:16:31;;;;;;;21.77;12.68;;;;;;;;;;4908878;29;20047;-71
2023/12/27 12:19:08;;;;;;;19.70;12.02;;;;;;;;;;4895306;29;20256;-73
2023/12/27 12:25:30;;;;;;;19.92;12.10;;;;;;;;;;4923503;29;20097;-72
2023/12/27 12:29:03;;;;;;;20.75;12.40;;;;;;;;;;4906439;29;20781;-72
2023/12/27 12:35:00;;;;;;;23.13;14.10;;;;;;;;;;4889128;29;20047;-72
2023/12/27 12:37:29;;;;;;;24.83;13.82;;;;;;;;;;4877164;29;20599;-73
2023/12/27 12:39:55;;;;;;;22.52;13.68;;;;;;;;;;4905032;29;20060;-71
2023/12/27 12:42:21;;;;;;;20.83;12.77;;;;;;;;;;4910297;29;20043;-71
2023/12/27 12:44:47;;;;;;;24.30;13.77;;;;;;;;;;4904758;29;20107;-70
2023/12/27 12:47:13;;;;;;;24.40;13.85;;;;;;;;;;4923452;29;20043;-72
2023/12/27 12:49:39;;;;;;;21.48;11.93;;;;;;;;;;4923122;29;20047;-72
2023/12/27 12:52:06;;;;;;;20.85;12.02;;;;;;;;;;4909706;29;20059;-72
2023/12/27 12:54:36;;;;;;;26.88;14.93;;;;;;;;;;4904323;29;20530;-71
2023/12/27 12:57:06;;;;;;;22.90;13.75;;;;;;;;;;4906468;29;20043;-70
2023/12/27 12:59:32;;;;;;;27.88;16.13;;;;;;;;;;4904003;29;20055;-70
2023/12/27 13:01:58;;;;;;;31.85;17.85;;;;;;;;;;4910735;29;20109;-70
2023/12/27 13:04:27;;;;;;;28.17;16.73;;;;;;;;;;4908715;29;20039;-70
2023/12/27 13:07:00;;;;;;;28.15;17.70;;;;;;;;;;4907181;29;20130;-70
2023/12/27 13:09:26;;;;;;;29.98;17.42;;;;;;;;;;4925172;29;20102;-70
2023/12/27 13:11:52;;;;;;;34.80;18.80;;;;;;;;;;4905159;29;20059;-71
2023/12/27 13:14:20;;;;;;;37.30;21.27;;;;;;;;;;4908424;29;20130;-70
2023/12/27 13:16:46;;;;;;;33.50;16.85;;;;;;;;;;4911840;29;20134;-70
2023/12/27 13:19:12;;;;;;;27.65;18.00;;;;;;;;;;4904575;29;20126;-69
2023/12/27 13:21:38;;;;;;;29.33;17.58;;;;;;;;;;4907219;29;20881;-69
2023/12/27 13:24:04;;;;;;;36.05;20.27;;;;;;;;;;4919142;29;20051;-70
2023/12/27 13:26:30;;;;;;;31.98;17.90;;;;;;;;;;4904936;29;20086;-70
2023/12/27 13:28:56;;;;;;;28.15;16.35;;;;;;;;;;4906421;29;20729;-70
2023/12/27 13:31:22;;;;;;;35.20;19.10;;;;;;;;;;4901455;29;20058;-70
2023/12/27 13:33:48;;;;;;;38.50;20.08;;;;;;;;;;4905887;29;20051;-71
2023/12/27 13:36:16;;;;;;;32.70;19.15;;;;;;;;;;4899386;29;20050;-70
2023/12/27 13:38:43;;;;;;;34.33;19.70;;;;;;;;;;4900689;29;20535;-70
2023/12/27 13:41:12;;;;;;;32.20;19.88;;;;;;;;;;4911465;29;20052;-69
2023/12/27 13:43:39;;;;;;;28.40;16.73;;;;;;;;;;4902528;29;20405;-71
2023/12/27 13:46:05;;;;;;;28.05;17.52;;;;;;;;;;4903597;29;20047;-69
2023/12/27 13:48:32;;;;;;;33.00;18.05;;;;;;;;;;4903251;29;20058;-70
2023/12/27 13:51:00;;;;;;;30.75;19.20;;;;;;;;;;4889002;29;20044;-71
2023/12/27 13:53:26;;;;;;;34.50;21.40;;;;;;;;;;4905002;29;20086;-70
2023/12/27 13:55:52;;;;;;;29.85;18.67;;;;;;;;;;4902916;29;20922;-70
2023/12/27 13:58:18;;;;;;;29.23;17.80;;;;;;;;;;4901787;29;20051;-71
2023/12/27 14:00:44;;;;;;;29.92;16.45;;;;;;;;;;4904557;29;20052;-70
2023/12/27 14:03:11;;;;;;;25.35;15.68;;;;;;;;;;4903910;29;20187;-69
2023/12/27 14:05:38;;;;;;;30.63;17.63;;;;;;;;;;4903493;29;20100;-71
2023/12/27 14:08:06;;;;;;;28.65;17.55;;;7.80;99.90;;;;;;4901082;29;20044;-71
2023/12/27 14:10:32;;;;;;;24.02;12.10;;;;;;;;;;4893380;29;20070;-70
2023/12/27 14:12:58;;;;;;;31.65;17.10;;;;;;;;;;4898963;29;20047;-71
2023/12/27 14:15:24;;;;;;;29.35;17.00;;;;;;;;;;4889618;29;20039;-70
2023/12/27 14:17:51;;;;;;;31.25;17.40;;;;;;;;;;4903470;29;20138;-70
2023/12/27 14:20:17;;;;;;;31.73;16.98;;;;;;;;;;4904144;29;20147;-71
2023/12/27 14:22:43;;;;;;;30.45;16.75;;;;;;;;;;4921653;29;20051;-70
2023/12/27 14:25:10;;;;;;;25.50;13.98;;;;;;;;;;4900072;29;20099;-71
2023/12/27 14:27:37;;;;;;;25.40;13.02;;;;;;;;;;4903007;29;20043;-71
2023/12/27 14:30:04;;;;;;;27.40;15.60;;;;;;;;;;4903350;29;20064;-70
2023/12/27 14:32:30;;;;;;;25.05;15.63;;;;;;;;;;4911634;29;20093;-70
2023/12/27 14:34:56;;;;;;;26.58;14.95;;;;;;;;;;4922106;29;20574;-70
2023/12/27 14:37:24;;;;;;;24.08;14.02;;;;;;;;;;4939054;28;20047;-72
2023/12/27 14:39:50;;;;;;;25.30;13.15;;;;;;;;;;4913381;28;20039;-71
2023/12/27 14:42:16;;;;;;;21.73;10.85;;;;;;;;;;4933137;29;20039;-71
2023/12/27 14:44:42;;;;;;;18.00;11.82;;;;;;;;;;4908328;29;20042;-71
2023/12/27 14:47:10;;;;;;;23.13;10.77;;;;;;;;;;4925139;28;20558;-71
2023/12/27 14:49:36;;;;;;;20.30;10.60;;;;;;;;;;4910795;29;20043;-70
2023/12/27 14:52:02;;;;;;;20.95;10.43;;;;;;;;;;4924617;29;20055;-70
2023/12/27 14:54:29;;;;;;;20.08;10.98;;;;;;;;;;4911182;29;20051;-70
2023/12/27 14:56:55;;;;;;;19.65;10.70;;;;;;;;;;4927621;29;20057;-70
2023/12/27 14:59:22;;;;;;;15.65;8.80;;;;;;;;;;4940941;29;20043;-70
2023/12/27 15:01:48;;;;;;;19.60;10.10;;;;;;;;;;4939082;28;20515;-70
2023/12/27 15:04:15;;;;;;;10.63;5.22;;;;;;;;;;4921045;29;20089;-72
2023/12/27 15:06:46;;;;;;;16.35;9.23;;;;;;;;;;4944148;28;20436;-72
2023/12/27 15:09:14;;;;;;;21.17;8.95;;;;;;;;;;4924151;29;20047;-71